sensor_id;sensor_type;location;lat;lon;timestamp;pressure;altitude;pressure_sealevel;temperature;humidity
83896;BME280;74045;42.812;74.638;2024-01-30T00:01:50;91460.31;;;1.01;84.36
83896;BME280;74045;42.812;74.638;2024-01-30T00:04:15;91437.13;;;0.80;84.50
83896;BME280;74045;42.812;74.638;2024-01-30T00:06:43;91468.06;;;1.13;84.86
83896;BME280;74045;42.812;74.638;2024-01-30T00:09:08;91481.16;;;1.17;84.88
83896;BME280;74045;42.812;74.638;2024-01-30T00:11:35;91472.28;;;1.18;84.58
83896;BME280;74045;42.812;74.638;2024-01-30T00:14:01;91401.53;;;0.68;84.45
83896;BME280;74045;42.812;74.638;2024-01-30T00:16:27;91478.41;;;1.25;83.94
83896;BME280;74045;42.812;74.638;2024-01-30T00:18:54;91479.50;;;1.24;84.36
83896;BME280;74045;42.812;74.638;2024-01-30T00:21:20;91479.59;;;1.28;84.49
83896;BME280;74045;42.812;74.638;2024-01-30T00:23:46;91472.78;;;1.23;83.89
83896;BME280;74045;42.812;74.638;2024-01-30T00:26:12;91474.38;;;1.28;84.28
83896;BME280;74045;42.812;74.638;2024-01-30T00:28:38;91475.41;;;1.23;84.35
83896;BME280;74045;42.812;74.638;2024-01-30T00:31:04;91488.56;;;1.30;84.24
83896;BME280;74045;42.812;74.638;2024-01-30T00:33:30;91471.09;;;1.15;84.13
83896;BME280;74045;42.812;74.638;2024-01-30T00:35:56;91487.06;;;1.29;84.38
83896;BME280;74045;42.812;74.638;2024-01-30T00:38:22;91493.03;;;1.30;84.12
83896;BME280;74045;42.812;74.638;2024-01-30T00:40:48;91497.47;;;1.29;84.27
83896;BME280;74045;42.812;74.638;2024-01-30T00:43:13;91492.28;;;1.29;84.07
83896;BME280;74045;42.812;74.638;2024-01-30T00:45:39;91487.31;;;1.24;84.24
83896;BME280;74045;42.812;74.638;2024-01-30T00:48:05;91486.88;;;1.22;84.41
83896;BME280;74045;42.812;74.638;2024-01-30T00:50:31;91471.09;;;1.15;84.06
83896;BME280;74045;42.812;74.638;2024-01-30T00:52:57;91500.91;;;1.33;83.75
83896;BME280;74045;42.812;74.638;2024-01-30T00:55:22;91505.78;;;1.35;84.05
83896;BME280;74045;42.812;74.638;2024-01-30T00:57:48;91487.97;;;1.21;84.16
83896;BME280;74045;42.812;74.638;2024-01-30T01:00:14;91502.09;;;1.36;84.13
83896;BME280;74045;42.812;74.638;2024-01-30T01:02:43;91505.69;;;1.31;83.74
83896;BME280;74045;42.812;74.638;2024-01-30T01:05:10;91503.75;;;1.28;83.84
83896;BME280;74045;42.812;74.638;2024-01-30T01:07:36;91496.53;;;1.22;83.74
83896;BME280;74045;42.812;74.638;2024-01-30T01:10:01;91500.31;;;1.24;84.19
83896;BME280;74045;42.812;74.638;2024-01-30T01:12:28;91437.63;;;0.85;84.23
83896;BME280;74045;42.812;74.638;2024-01-30T01:14:53;91485.19;;;1.14;84.25
83896;BME280;74045;42.812;74.638;2024-01-30T01:17:19;91510.72;;;1.24;84.43
83896;BME280;74045;42.812;74.638;2024-01-30T01:19:45;91496.84;;;1.20;84.77
83896;BME280;74045;42.812;74.638;2024-01-30T01:22:10;91501.66;;;1.18;84.79
83896;BME280;74045;42.812;74.638;2024-01-30T01:24:36;91450.28;;;0.71;85.00
83896;BME280;74045;42.812;74.638;2024-01-30T01:27:02;91489.84;;;0.93;85.26
83896;BME280;74045;42.812;74.638;2024-01-30T01:29:28;91501.84;;;0.97;85.76
83896;BME280;74045;42.812;74.638;2024-01-30T01:31:57;91485.94;;;0.86;85.93
83896;BME280;74045;42.812;74.638;2024-01-30T01:34:24;91515.94;;;0.96;85.66
83896;BME280;74045;42.812;74.638;2024-01-30T01:36:50;91507.19;;;0.88;86.41
83896;BME280;74045;42.812;74.638;2024-01-30T01:39:16;91508.97;;;0.84;86.71
83896;BME280;74045;42.812;74.638;2024-01-30T01:41:42;91472.72;;;0.63;86.63
83896;BME280;74045;42.812;74.638;2024-01-30T01:44:08;91511.13;;;0.82;86.38
83896;BME280;74045;42.812;74.638;2024-01-30T01:46:34;91446.91;;;0.42;86.50
83896;BME280;74045;42.812;74.638;2024-01-30T01:49:02;91505.72;;;0.75;87.28
83896;BME280;74045;42.812;74.638;2024-01-30T01:51:31;91492.31;;;0.61;87.39
83896;BME280;74045;42.812;74.638;2024-01-30T01:54:02;91504.22;;;0.74;87.09
83896;BME280;74045;42.812;74.638;2024-01-30T01:56:29;91505.63;;;0.72;86.96
83896;BME280;74045;42.812;74.638;2024-01-30T01:58:59;91428.56;;;0.23;86.96
83896;BME280;74045;42.812;74.638;2024-01-30T02:01:25;91466.59;;;0.43;87.04
83896;BME280;74045;42.812;74.638;2024-01-30T02:03:52;91496.56;;;0.65;86.83
83896;BME280;74045;42.812;74.638;2024-01-30T02:06:18;91492.75;;;0.63;87.01
83896;BME280;74045;42.812;74.638;2024-01-30T02:08:44;91494.94;;;0.61;87.11
83896;BME280;74045;42.812;74.638;2024-01-30T02:11:10;91489.97;;;0.56;87.34
83896;BME280;74045;42.812;74.638;2024-01-30T02:13:37;91482.50;;;0.54;87.46
83896;BME280;74045;42.812;74.638;2024-01-30T02:16:02;91479.91;;;0.54;87.33
83896;BME280;74045;42.812;74.638;2024-01-30T02:18:28;91484.66;;;0.52;87.27
83896;BME280;74045;42.812;74.638;2024-01-30T02:20:56;91485.41;;;0.53;87.81
83896;BME280;74045;42.812;74.638;2024-01-30T02:23:27;91476.69;;;0.45;87.83
83896;BME280;74045;42.812;74.638;2024-01-30T02:25:53;91486.94;;;0.54;87.49
83896;BME280;74045;42.812;74.638;2024-01-30T02:28:19;91481.31;;;0.52;87.42
83896;BME280;74045;42.812;74.638;2024-01-30T02:30:46;91490.22;;;0.51;87.85
83896;BME280;74045;42.812;74.638;2024-01-30T02:33:14;91475.06;;;0.40;87.28
83896;BME280;74045;42.812;74.638;2024-01-30T02:35:40;91482.41;;;0.51;87.46
83896;BME280;74045;42.812;74.638;2024-01-30T02:38:06;91483.56;;;0.53;87.67
83896;BME280;74045;42.812;74.638;2024-01-30T02:40:32;91461.63;;;0.38;87.33
83896;BME280;74045;42.812;74.638;2024-01-30T02:43:01;91410.41;;;0.11;87.40
83896;BME280;74045;42.812;74.638;2024-01-30T02:45:28;91477.41;;;0.58;86.88
83896;BME280;74045;42.812;74.638;2024-01-30T02:47:53;91410.59;;;0.18;86.88
83896;BME280;74045;42.812;74.638;2024-01-30T02:50:19;91463.31;;;0.59;86.62
83896;BME280;74045;42.812;74.638;2024-01-30T02:52:45;91490.22;;;0.79;86.47
83896;BME280;74045;42.812;74.638;2024-01-30T02:55:11;91482.94;;;0.84;86.28
83896;BME280;74045;42.812;74.638;2024-01-30T02:57:37;91475.66;;;0.90;85.68
83896;BME280;74045;42.812;74.638;2024-01-30T03:00:03;91452.81;;;0.83;85.00
83896;BME280;74045;42.812;74.638;2024-01-30T03:02:34;91468.47;;;0.99;84.74
83896;BME280;74045;42.812;74.638;2024-01-30T03:04:59;91464.69;;;0.97;84.60
83896;BME280;74045;42.812;74.638;2024-01-30T03:07:25;91478.28;;;1.06;83.75
83896;BME280;74045;42.812;74.638;2024-01-30T03:09:51;91410.25;;;0.60;83.76
83896;BME280;74045;42.812;74.638;2024-01-30T03:12:17;91481.50;;;1.15;83.65
83896;BME280;74045;42.812;74.638;2024-01-30T03:14:43;91485.28;;;1.18;83.39
83896;BME280;74045;42.812;74.638;2024-01-30T03:17:08;91477.81;;;1.16;83.22
83896;BME280;74045;42.812;74.638;2024-01-30T03:19:34;91449.25;;;1.04;83.34
83896;BME280;74045;42.812;74.638;2024-01-30T03:21:59;91460.03;;;1.18;83.26
83896;BME280;74045;42.812;74.638;2024-01-30T03:24:25;91474.38;;;1.28;83.25
83896;BME280;74045;42.812;74.638;2024-01-30T03:26:51;91471.44;;;1.29;82.97
83896;BME280;74045;42.812;74.638;2024-01-30T03:29:17;91460.69;;;1.15;82.76
83896;BME280;74045;42.812;74.638;2024-01-30T03:31:43;91474.56;;;1.35;82.53
83896;BME280;74045;42.812;74.638;2024-01-30T03:34:11;91473.53;;;1.40;82.66
83896;BME280;74045;42.812;74.638;2024-01-30T03:36:36;91469.94;;;1.44;82.77
83896;BME280;74045;42.812;74.638;2024-01-30T03:39:02;91461.13;;;1.49;82.32
83896;BME280;74045;42.812;74.638;2024-01-30T03:41:28;91477.50;;;1.65;82.37
83896;BME280;74045;42.812;74.638;2024-01-30T03:43:54;91403.28;;;1.24;83.00
83896;BME280;74045;42.812;74.638;2024-01-30T03:46:19;91459.53;;;1.60;83.31
83896;BME280;74045;42.812;74.638;2024-01-30T03:48:45;91479.69;;;1.63;84.03
83896;BME280;74045;42.812;74.638;2024-01-30T03:51:11;91463.22;;;1.59;83.96
83896;BME280;74045;42.812;74.638;2024-01-30T03:53:44;91449.81;;;1.57;84.08
83896;BME280;74045;42.812;74.638;2024-01-30T03:56:14;91436.03;;;1.41;84.02
83896;BME280;74045;42.812;74.638;2024-01-30T03:58:40;91459.84;;;1.43;84.26
83896;BME280;74045;42.812;74.638;2024-01-30T04:01:07;91458.44;;;1.29;84.81
83896;BME280;74045;42.812;74.638;2024-01-30T04:03:33;91448.28;;;1.24;84.92
83896;BME280;74045;42.812;74.638;2024-01-30T04:05:59;91452.53;;;1.17;85.18
83896;BME280;74045;42.812;74.638;2024-01-30T04:08:24;91454.81;;;1.18;84.94
83896;BME280;74045;42.812;74.638;2024-01-30T04:10:50;91460.03;;;1.18;85.41
83896;BME280;74045;42.812;74.638;2024-01-30T04:13:16;91450.88;;;1.24;85.21
83896;BME280;74045;42.812;74.638;2024-01-30T04:15:42;91447.78;;;1.34;85.35
83896;BME280;74045;42.812;74.638;2024-01-30T04:18:07;91445.91;;;1.51;84.91
83896;BME280;74045;42.812;74.638;2024-01-30T04:20:33;91448.09;;;1.65;84.31
83896;BME280;74045;42.812;74.638;2024-01-30T04:22:58;91448.03;;;1.77;84.27
83896;BME280;74045;42.812;74.638;2024-01-30T04:25:24;91442.38;;;1.91;83.95
83896;BME280;74045;42.812;74.638;2024-01-30T04:27:50;91446.22;;;1.97;83.97
83896;BME280;74045;42.812;74.638;2024-01-30T04:30:16;91434.22;;;1.92;83.69
83896;BME280;74045;42.812;74.638;2024-01-30T04:32:42;91430.84;;;1.92;84.13
83896;BME280;74045;42.812;74.638;2024-01-30T04:35:08;91427.56;;;1.95;83.43
83896;BME280;74045;42.812;74.638;2024-01-30T04:37:33;91432.84;;;1.98;83.69
83896;BME280;74045;42.812;74.638;2024-01-30T04:39:59;91422.53;;;2.02;83.95
83896;BME280;74045;42.812;74.638;2024-01-30T04:42:24;91420.84;;;1.94;83.79
83896;BME280;74045;42.812;74.638;2024-01-30T04:44:50;91346.16;;;1.47;82.97
83896;BME280;74045;42.812;74.638;2024-01-30T04:47:16;91410.34;;;1.90;83.49
83896;BME280;74045;42.812;74.638;2024-01-30T04:49:42;91410.81;;;1.96;83.79
83896;BME280;74045;42.812;74.638;2024-01-30T04:52:08;91409.94;;;1.88;83.39
83896;BME280;74045;42.812;74.638;2024-01-30T04:54:35;91393.78;;;1.63;83.89
83896;BME280;74045;42.812;74.638;2024-01-30T04:57:02;91414.41;;;1.72;84.24
83896;BME280;74045;42.812;74.638;2024-01-30T04:59:28;91406.78;;;1.63;84.31
83896;BME280;74045;42.812;74.638;2024-01-30T05:01:53;91395.72;;;1.50;84.73
83896;BME280;74045;42.812;74.638;2024-01-30T05:04:19;91394.63;;;1.36;84.86
83896;BME280;74045;42.812;74.638;2024-01-30T05:06:46;91375.59;;;1.16;85.67
83896;BME280;74045;42.812;74.638;2024-01-30T05:09:11;91397.38;;;1.43;85.52
83896;BME280;74045;42.812;74.638;2024-01-30T05:11:41;91331.78;;;1.02;85.27
83896;BME280;74045;42.812;74.638;2024-01-30T05:14:07;91381.38;;;1.41;85.47
83896;BME280;74045;42.812;74.638;2024-01-30T05:16:34;91402.25;;;1.60;85.18
83896;BME280;74045;42.812;74.638;2024-01-30T05:19:00;91396.63;;;1.58;84.39
83896;BME280;74045;42.812;74.638;2024-01-30T05:21:25;91388.41;;;1.56;84.86
83896;BME280;74045;42.812;74.638;2024-01-30T05:23:51;91397.56;;;1.66;84.80
83896;BME280;74045;42.812;74.638;2024-01-30T05:26:17;91402.16;;;1.72;83.86
83896;BME280;74045;42.812;74.638;2024-01-30T05:28:43;91396.44;;;1.83;83.89
83896;BME280;74045;42.812;74.638;2024-01-30T05:31:12;91404.59;;;2.00;83.70
83896;BME280;74045;42.812;74.638;2024-01-30T05:33:37;91406.19;;;2.05;83.23
83896;BME280;74045;42.812;74.638;2024-01-30T05:36:03;91399.63;;;2.11;82.71
83896;BME280;74045;42.812;74.638;2024-01-30T05:38:29;91404.56;;;2.16;83.05
83896;BME280;74045;42.812;74.638;2024-01-30T05:40:55;91420.34;;;2.23;83.66
83896;BME280;74045;42.812;74.638;2024-01-30T05:43:23;91370.19;;;1.91;82.70
83896;BME280;74045;42.812;74.638;2024-01-30T05:45:49;91412.38;;;2.16;83.18
83896;BME280;74045;42.812;74.638;2024-01-30T05:48:15;91395.31;;;2.19;83.13
83896;BME280;74045;42.812;74.638;2024-01-30T05:50:40;91411.25;;;2.33;83.48
83896;BME280;74045;42.812;74.638;2024-01-30T05:53:06;91412.47;;;2.39;83.30
83896;BME280;74045;42.812;74.638;2024-01-30T05:55:32;91349.56;;;2.02;82.64
83896;BME280;74045;42.812;74.638;2024-01-30T05:57:57;91421.53;;;2.65;81.83
83896;BME280;74045;42.812;74.638;2024-01-30T06:00:23;91426.41;;;2.86;80.31
83896;BME280;74045;42.812;74.638;2024-01-30T06:02:49;91357.34;;;2.60;79.07
83896;BME280;74045;42.812;74.638;2024-01-30T06:05:14;91414.19;;;3.13;79.58
83896;BME280;74045;42.812;74.638;2024-01-30T06:07:40;91409.72;;;3.13;78.66
83896;BME280;74045;42.812;74.638;2024-01-30T06:10:06;91420.84;;;3.10;78.63
83896;BME280;74045;42.812;74.638;2024-01-30T06:12:32;91408.66;;;2.95;77.81
83896;BME280;74045;42.812;74.638;2024-01-30T06:14:58;91341.38;;;2.42;78.08
83896;BME280;74045;42.812;74.638;2024-01-30T06:17:23;91418.28;;;2.91;77.09
83896;BME280;74045;42.812;74.638;2024-01-30T06:19:49;91411.69;;;2.97;76.53
83896;BME280;74045;42.812;74.638;2024-01-30T06:22:15;91426.06;;;3.10;75.42
83896;BME280;74045;42.812;74.638;2024-01-30T06:24:41;91405.97;;;3.11;75.47
83896;BME280;74045;42.812;74.638;2024-01-30T06:27:07;91408.69;;;3.18;76.17
83896;BME280;74045;42.812;74.638;2024-01-30T06:29:32;91398.38;;;3.25;75.00
83896;BME280;74045;42.812;74.638;2024-01-30T06:31:59;91410.66;;;3.48;75.02
83896;BME280;74045;42.812;74.638;2024-01-30T06:34:24;91420.47;;;3.54;74.07
83896;BME280;74045;42.812;74.638;2024-01-30T06:36:51;91385.75;;;3.54;73.15
83896;BME280;74045;42.812;74.638;2024-01-30T06:39:17;91410.06;;;3.81;73.02
83896;BME280;74045;42.812;74.638;2024-01-30T06:41:43;91416.88;;;3.89;71.60
83896;BME280;74045;42.812;74.638;2024-01-30T06:44:09;91417.38;;;3.98;72.07
83896;BME280;74045;42.812;74.638;2024-01-30T06:46:35;91396.06;;;3.70;72.07
83896;BME280;74045;42.812;74.638;2024-01-30T06:49:01;91416.28;;;3.73;72.44
83896;BME280;74045;42.812;74.638;2024-01-30T06:51:26;91409.81;;;3.67;71.66
83896;BME280;74045;42.812;74.638;2024-01-30T06:53:52;91347.41;;;3.35;71.60
83896;BME280;74045;42.812;74.638;2024-01-30T06:56:18;91377.00;;;3.69;71.65
83896;BME280;74045;42.812;74.638;2024-01-30T06:58:50;91381.59;;;3.76;70.22
83896;BME280;74045;42.812;74.638;2024-01-30T07:01:16;91395.88;;;3.82;70.14
83896;BME280;74045;42.812;74.638;2024-01-30T07:03:42;91399.59;;;3.81;69.51
83896;BME280;74045;42.812;74.638;2024-01-30T07:06:08;91399.53;;;3.77;69.20
83896;BME280;74045;42.812;74.638;2024-01-30T07:08:34;91392.31;;;3.67;68.86
83896;BME280;74045;42.812;74.638;2024-01-30T07:11:00;91376.75;;;3.51;69.60
83896;BME280;74045;42.812;74.638;2024-01-30T07:13:27;91352.81;;;3.23;70.08
83896;BME280;74045;42.812;74.638;2024-01-30T07:15:54;91327.38;;;2.93;70.20
83896;BME280;74045;42.812;74.638;2024-01-30T07:18:20;91399.06;;;3.22;69.61
83896;BME280;74045;42.812;74.638;2024-01-30T07:20:45;91387.47;;;3.20;71.05
83896;BME280;74045;42.812;74.638;2024-01-30T07:23:13;91346.59;;;2.85;70.91
83896;BME280;74045;42.812;74.638;2024-01-30T07:25:41;91392.50;;;3.09;70.46
83896;BME280;74045;42.812;74.638;2024-01-30T07:28:07;91389.06;;;3.05;71.19
83896;BME280;74045;42.812;74.638;2024-01-30T07:30:35;91395.19;;;2.93;70.82
83896;BME280;74045;42.812;74.638;2024-01-30T07:33:01;91394.53;;;2.77;70.54
83896;BME280;74045;42.812;74.638;2024-01-30T07:35:26;91374.88;;;2.40;69.29
83896;BME280;74045;42.812;74.638;2024-01-30T07:37:52;91387.41;;;2.35;70.16
83896;BME280;74045;42.812;74.638;2024-01-30T07:40:17;91393.03;;;2.17;71.20
83896;BME280;74045;42.812;74.638;2024-01-30T07:42:43;91392.34;;;2.01;73.10
83896;BME280;74045;42.812;74.638;2024-01-30T07:45:09;91374.19;;;1.69;75.47
83896;BME280;74045;42.812;74.638;2024-01-30T07:47:35;91386.47;;;1.53;77.19
83896;BME280;74045;42.812;74.638;2024-01-30T07:50:00;91398.06;;;1.40;78.20
83896;BME280;74045;42.812;74.638;2024-01-30T07:52:26;91388.00;;;1.22;78.61
83896;BME280;74045;42.812;74.638;2024-01-30T07:54:52;91381.75;;;0.95;79.59
83896;BME280;74045;42.812;74.638;2024-01-30T07:57:18;91375.03;;;0.78;79.76
83896;BME280;74045;42.812;74.638;2024-01-30T07:59:44;91380.91;;;0.75;79.67
83896;BME280;74045;42.812;74.638;2024-01-30T08:02:13;91243.44;;;-0.18;78.93
83896;BME280;74045;42.812;74.638;2024-01-30T08:04:40;91374.31;;;0.50;79.83
83896;BME280;74045;42.812;74.638;2024-01-30T08:07:13;91373.66;;;0.53;79.83
83896;BME280;74045;42.812;74.638;2024-01-30T08:09:44;91339.28;;;0.43;80.00
83896;BME280;74045;42.812;74.638;2024-01-30T08:12:09;91279.97;;;0.17;79.75
83896;BME280;74045;42.812;74.638;2024-01-30T08:14:35;91373.28;;;0.82;79.52
83896;BME280;74045;42.812;74.638;2024-01-30T08:17:01;91304.84;;;0.62;79.10
83896;BME280;74045;42.812;74.638;2024-01-30T08:19:26;91355.88;;;0.99;78.20
83896;BME280;74045;42.812;74.638;2024-01-30T08:21:52;91293.50;;;0.55;77.74
83896;BME280;74045;42.812;74.638;2024-01-30T08:24:18;91345.09;;;1.00;78.53
83896;BME280;74045;42.812;74.638;2024-01-30T08:26:43;91242.88;;;0.49;78.97
83896;BME280;74045;42.812;74.638;2024-01-30T08:29:09;91292.94;;;0.93;78.69
83896;BME280;74045;42.812;74.638;2024-01-30T08:31:35;91355.72;;;1.43;78.49
83896;BME280;74045;42.812;74.638;2024-01-30T08:34:00;91286.31;;;0.96;78.39
83896;BME280;74045;42.812;74.638;2024-01-30T08:36:26;91353.38;;;1.53;78.60
83896;BME280;74045;42.812;74.638;2024-01-30T08:38:52;91353.97;;;1.63;78.71
83896;BME280;74045;42.812;74.638;2024-01-30T08:41:17;91310.78;;;1.26;78.02
83896;BME280;74045;42.812;74.638;2024-01-30T08:43:43;91382.50;;;1.75;78.54
83896;BME280;74045;42.812;74.638;2024-01-30T08:46:10;91380.06;;;1.66;78.44
83896;BME280;74045;42.812;74.638;2024-01-30T08:48:36;91371.16;;;1.67;78.43
83896;BME280;74045;42.812;74.638;2024-01-30T08:51:01;91353.97;;;1.63;78.87
83896;BME280;74045;42.812;74.638;2024-01-30T08:53:27;91368.97;;;1.69;78.05
83896;BME280;74045;42.812;74.638;2024-01-30T08:55:53;91227.44;;;0.56;77.93
83896;BME280;74045;42.812;74.638;2024-01-30T08:58:19;91371.84;;;1.48;78.92
83896;BME280;74045;42.812;74.638;2024-01-30T09:00:44;91376.31;;;1.48;78.79
83896;BME280;74045;42.812;74.638;2024-01-30T09:03:10;91379.44;;;1.38;78.95
83896;BME280;74045;42.812;74.638;2024-01-30T09:05:36;91370.72;;;1.30;79.18
83896;BME280;74045;42.812;74.638;2024-01-30T09:08:02;91321.09;;;0.75;79.63
83896;BME280;74045;42.812;74.638;2024-01-30T09:10:27;91370.81;;;1.18;79.81
83896;BME280;74045;42.812;74.638;2024-01-30T09:12:53;91380.03;;;1.15;79.48
83896;BME280;74045;42.812;74.638;2024-01-30T09:15:18;91368.53;;;0.84;79.72
83896;BME280;74045;42.812;74.638;2024-01-30T09:17:44;91308.94;;;0.19;80.18
83896;BME280;74045;42.812;74.638;2024-01-30T09:20:10;91379.53;;;0.50;81.08
83896;BME280;74045;42.812;74.638;2024-01-30T09:22:36;91371.03;;;0.37;81.19
83896;BME280;74045;42.812;74.638;2024-01-30T09:25:02;91376.31;;;0.40;81.46
83896;BME280;74045;42.812;74.638;2024-01-30T09:27:28;91357.22;;;0.20;82.32
83896;BME280;74045;42.812;74.638;2024-01-30T09:29:54;91399.75;;;0.28;81.96
83896;BME280;74045;42.812;74.638;2024-01-30T09:32:19;91373.50;;;0.05;82.00
83896;BME280;74045;42.812;74.638;2024-01-30T09:34:45;91399.88;;;0.19;81.98
83896;BME280;74045;42.812;74.638;2024-01-30T09:37:11;91393.09;;;0.15;81.78
83896;BME280;74045;42.812;74.638;2024-01-30T09:39:36;91364.66;;;-0.06;82.36
83896;BME280;74045;42.812;74.638;2024-01-30T09:42:13;91381.41;;;0.09;82.75
83896;BME280;74045;42.812;74.638;2024-01-30T09:44:43;91317.72;;;-0.41;82.58
83896;BME280;74045;42.812;74.638;2024-01-30T09:47:09;91386.97;;;-0.05;82.47
83896;BME280;74045;42.812;74.638;2024-01-30T09:49:35;91320.13;;;-0.61;82.57
83896;BME280;74045;42.812;74.638;2024-01-30T09:52:08;91308.03;;;-0.81;83.09
83896;BME280;74045;42.812;74.638;2024-01-30T09:54:34;91393.56;;;-0.20;83.02
83896;BME280;74045;42.812;74.638;2024-01-30T09:57:00;91388.38;;;-0.20;82.51
83896;BME280;74045;42.812;74.638;2024-01-30T09:59:26;91372.53;;;-0.31;82.84
83896;BME280;74045;42.812;74.638;2024-01-30T10:01:52;91387.66;;;-0.33;83.21
83896;BME280;74045;42.812;74.638;2024-01-30T10:04:18;91394.00;;;-0.18;83.08
83896;BME280;74045;42.812;74.638;2024-01-30T10:06:43;91405.91;;;-0.17;82.61
83896;BME280;74045;42.812;74.638;2024-01-30T10:09:09;91307.94;;;-0.73;82.59
83896;BME280;74045;42.812;74.638;2024-01-30T10:11:36;91399.00;;;-0.13;82.52
83896;BME280;74045;42.812;74.638;2024-01-30T10:14:02;91393.47;;;-0.24;82.31
83896;BME280;74045;42.812;74.638;2024-01-30T10:16:28;91320.56;;;-0.71;82.99
83896;BME280;74045;42.812;74.638;2024-01-30T10:18:53;91298.41;;;-0.69;82.48
83896;BME280;74045;42.812;74.638;2024-01-30T10:21:19;91363.97;;;-0.19;82.61
83896;BME280;74045;42.812;74.638;2024-01-30T10:23:45;91385.97;;;-0.01;82.38
83896;BME280;74045;42.812;74.638;2024-01-30T10:26:10;91322.69;;;-0.49;81.94
83896;BME280;74045;42.812;74.638;2024-01-30T10:28:37;91384.03;;;-0.04;82.04
83896;BME280;74045;42.812;74.638;2024-01-30T10:31:03;91353.88;;;-0.20;82.20
83896;BME280;74045;42.812;74.638;2024-01-30T10:33:31;91383.72;;;-0.02;81.97
83896;BME280;74045;42.812;74.638;2024-01-30T10:36:02;91380.38;;;-0.03;82.12
83896;BME280;74045;42.812;74.638;2024-01-30T10:38:32;91397.81;;;-0.15;82.01
83896;BME280;74045;42.812;74.638;2024-01-30T10:41:00;91388.19;;;-0.27;82.25
83896;BME280;74045;42.812;74.638;2024-01-30T10:43:35;91327.06;;;-0.77;82.14
83896;BME280;74045;42.812;74.638;2024-01-30T10:46:15;91402.25;;;-0.28;82.27
83896;BME280;74045;42.812;74.638;2024-01-30T10:48:43;91329.22;;;-0.92;82.68
83896;BME280;74045;42.812;74.638;2024-01-30T10:51:14;91368.31;;;-0.60;82.31
83896;BME280;74045;42.812;74.638;2024-01-30T10:53:41;91407.13;;;-0.39;82.05
83896;BME280;74045;42.812;74.638;2024-01-30T10:56:10;91414.16;;;-0.39;82.50
83896;BME280;74045;42.812;74.638;2024-01-30T10:58:36;91346.84;;;-0.97;82.01
83896;BME280;74045;42.812;74.638;2024-01-30T11:01:03;91410.69;;;-0.68;82.63
83896;BME280;74045;42.812;74.638;2024-01-30T11:03:29;91429.84;;;-0.60;82.83
83896;BME280;74045;42.812;74.638;2024-01-30T11:05:59;91366.16;;;-1.07;82.32
83896;BME280;74045;42.812;74.638;2024-01-30T11:08:25;91440.75;;;-0.67;82.36
83896;BME280;74045;42.812;74.638;2024-01-30T11:10:58;91427.47;;;-0.65;82.65
83896;BME280;74045;42.812;74.638;2024-01-30T11:13:30;91431.69;;;-0.61;82.60
83896;BME280;74045;42.812;74.638;2024-01-30T11:16:05;91400.22;;;-0.84;82.64
83896;BME280;74045;42.812;74.638;2024-01-30T11:18:33;91446.06;;;-0.63;82.23
83896;BME280;74045;42.812;74.638;2024-01-30T11:20:59;91358.47;;;-1.28;82.31
83896;BME280;74045;42.812;74.638;2024-01-30T11:23:28;91401.19;;;-1.01;82.83
83896;BME280;74045;42.812;74.638;2024-01-30T11:25:54;91444.63;;;-0.85;82.71
83896;BME280;74045;42.812;74.638;2024-01-30T11:28:21;91351.00;;;-1.42;82.45
83896;BME280;74045;42.812;74.638;2024-01-30T11:30:47;91449.56;;;-0.93;82.76
83896;BME280;74045;42.812;74.638;2024-01-30T11:33:30;91379.31;;;-1.24;82.47
83896;BME280;74045;42.812;74.638;2024-01-30T11:35:57;91427.56;;;-0.86;82.97
83896;BME280;74045;42.812;74.638;2024-01-30T11:38:26;91428.31;;;-0.86;82.32
83896;BME280;74045;42.812;74.638;2024-01-30T11:40:54;91435.75;;;-0.97;82.53
83896;BME280;74045;42.812;74.638;2024-01-30T11:43:21;91438.53;;;-1.02;83.26
83896;BME280;74045;42.812;74.638;2024-01-30T11:45:46;91435.47;;;-1.16;83.57
83896;BME280;74045;42.812;74.638;2024-01-30T11:48:12;91422.84;;;-1.18;83.29
83896;BME280;74045;42.812;74.638;2024-01-30T11:50:39;91354.72;;;-1.64;83.40
83896;BME280;74045;42.812;74.638;2024-01-30T11:53:05;91382.28;;;-1.47;83.17
83896;BME280;74045;42.812;74.638;2024-01-30T11:55:31;91439.72;;;-1.11;83.74
83896;BME280;74045;42.812;74.638;2024-01-30T11:57:57;91433.09;;;-1.21;83.64
83896;BME280;74045;42.812;74.638;2024-01-30T12:00:23;91433.81;;;-1.33;84.33
83896;BME280;74045;42.812;74.638;2024-01-30T12:02:50;91352.09;;;-1.97;84.32
83896;BME280;74045;42.812;74.638;2024-01-30T12:05:19;91433.16;;;-1.42;84.28
83896;BME280;74045;42.812;74.638;2024-01-30T12:07:45;91441.69;;;-1.42;84.71
83896;BME280;74045;42.812;74.638;2024-01-30T12:10:13;91434.44;;;-1.48;84.50
83896;BME280;74045;42.812;74.638;2024-01-30T12:12:44;91436.13;;;-1.52;84.99
83896;BME280;74045;42.812;74.638;2024-01-30T12:15:11;91440.56;;;-1.53;84.93
83896;BME280;74045;42.812;74.638;2024-01-30T12:17:41;91446.19;;;-1.51;84.43
83896;BME280;74045;42.812;74.638;2024-01-30T12:20:14;91409.19;;;-1.72;84.68
83896;BME280;74045;42.812;74.638;2024-01-30T12:22:46;91450.94;;;-1.41;84.49
83896;BME280;74045;42.812;74.638;2024-01-30T12:25:17;91449.91;;;-1.40;84.60
83896;BME280;74045;42.812;74.638;2024-01-30T12:27:47;91441.00;;;-1.51;84.71
83896;BME280;74045;42.812;74.638;2024-01-30T12:30:17;91449.19;;;-1.49;84.69
83896;BME280;74045;42.812;74.638;2024-01-30T12:32:45;91388.59;;;-1.90;84.25
83896;BME280;74045;42.812;74.638;2024-01-30T12:35:18;91480.03;;;-1.35;83.95
83896;BME280;74045;42.812;74.638;2024-01-30T12:37:52;91476.22;;;-1.38;84.17
83896;BME280;74045;42.812;74.638;2024-01-30T12:40:18;91482.50;;;-1.39;84.32
83896;BME280;74045;42.812;74.638;2024-01-30T12:42:49;91467.97;;;-1.52;84.10
83896;BME280;74045;42.812;74.638;2024-01-30T12:45:14;91503.22;;;-1.39;83.88
83896;BME280;74045;42.812;74.638;2024-01-30T12:47:47;91469.34;;;-1.54;83.91
83896;BME280;74045;42.812;74.638;2024-01-30T12:50:13;91446.00;;;-1.88;84.24
83896;BME280;74045;42.812;74.638;2024-01-30T12:52:42;91499.25;;;-1.57;84.63
83896;BME280;74045;42.812;74.638;2024-01-30T12:55:07;91508.38;;;-1.51;84.36